ホノルル国際空港の過去48時間の天気

ホノルル国際空港 (Honolulu, Honolulu International Airport)

現在時刻: 9/25 11:54 HST (9/25 21:54 UTC) 以下の時間は現地時間です。

過去48時間のMETAR気象情報
時間 風向 風速(m/s) 視程 気温(℃) 湿度(%) 気圧(hPa) 天気現象
25 10:53 5 10km以上 28.9 70 1016.3
25 09:53 5 10km以上 28.3 70 1016.2
25 08:53 南南東 3 10km以上 27.8 69 1016.1
25 07:53 東南東 2 10km以上 26.7 74 1015.9
25 06:53 北北西 2 10km以上 24.4 85 1015.6
25 05:53 2 10km以上 23.9 88 1015.2
25 04:53 静穏 0 10km以上 23.9 88 1014.9
25 03:53 北北西 2 10km以上 25 82 1014.9
25 02:53 北北西 2 10km以上 25 82 1015
25 01:53 静穏 0 10km以上 25 82 1015.3
25 00:53 北北西 2 10km以上 26.1 77 1015.8
24 23:53 北北東 2 10km以上 25.6 79 1016.1
24 22:53 静穏 0 10km以上 26.1 77 1016.2
24 21:53 北北東 3 10km以上 26.1 77 1016.2
24 20:53 2 10km以上 26.7 74 1015.8
24 19:53 2 10km以上 27.2 72 1015.2
24 18:53 北東 3 10km以上 27.8 69 1014.3
24 18:27 東北東 5 10km以上 28.3 67 1014
24 18:13 4 10km以上 28.3 70 1014
24 17:53 東南東 5 10km以上 28.3 67 1013.5
24 16:53 南東 6 10km以上 28.3 70 1013.1
24 15:53 南東 7 10km以上 28.9 65 1012.8
24 14:53 南東 9 10km以上 29.4 65 1012.9
24 13:53 4 10km以上 30.6 55 1013.3
24 12:53 5 10km以上 31.1 54 1013.9
24 11:53 南東 6 10km以上 29.4 68 1014.6
24 10:53 南東 5 10km以上 29.4 65 1015.6
24 09:53 南東 4 10km以上 28.9 65 1016
24 08:53 東南東 4 10km以上 27.8 72 1015.9
24 07:53 2 10km以上 26.7 74 1015.4
24 06:53 2 10km以上 24.4 88 1014.8
24 05:53 2 10km以上 25.6 82 1014.2
24 04:53 静穏 0 10km以上 25.6 82 1013.9
24 03:53 2 10km以上 25 88 1013.3
24 02:53 南東 2 10km以上 25 90 1013.5
24 01:53 4 10km以上 25 84 1013.9
24 00:53 北北東 3 10km以上 25.6 85 1014.4 弱い雨
23 23:53 北北東 2 10km以上 26.7 74 1014.5
23 22:53 静穏 0 10km以上 26.7 74 1015.1
23 21:53 3 10km以上 26.7 74 1015
23 20:53 東北東 2 10km以上 26.7 74 1014.9
23 19:53 3 10km以上 27.2 72 1014.4
23 18:53 北東 2 10km以上 27.8 67 1013.5
23 17:53 東北東 3 10km以上 28.3 65 1012.8
23 16:53 - - 10km以上 28.3 65 1012.5
23 15:53 南南東 5 10km以上 29.4 65 1012.4
23 14:53 南南東 7 10km以上 29.4 63 1012.2
23 13:53 南東 8 10km以上 30.6 61 1012.4
23 12:53 東南東 5 10km以上 29.4 63 1012.8
PHNL 252053Z 18010KT 10SM FEW025 SCT038 29/23 A3001 RMK AO2 SLP163 T02890228 51004
PHNL 251953Z 17009KT 10SM FEW025 SCT040 SCT250 28/22 A3001 RMK AO2 SLP162 T02830222
PHNL 251853Z 15005KT 10SM FEW025 FEW040 SCT250 28/22 A3001 RMK AO2 SLP161 T02780217
PHNL 251753Z 12003KT 10SM FEW025 SCT250 27/22 A3000 RMK AO2 SLP159 T02670217 10267 20233 53010
PHNL 251653Z 33003KT 10SM FEW025 SCT250 24/22 A2999 RMK AO2 SLP156 T02440217
PHNL 251553Z 35003KT 10SM FEW025 SCT250 24/22 A2998 RMK AO2 SLP152 T02390217
PHNL 251453Z 00000KT 10SM FEW025 24/22 A2997 RMK AO2 SLP149 T02390217 55004
PHNL 251353Z 34004KT 10SM FEW025 FEW038 25/22 A2997 RMK AO2 SLP149 T02500217
PHNL 251253Z 34004KT 10SM FEW025 FEW038 25/22 A2998 RMK AO2 SLP150 T02500217
PHNL 251153Z 00000KT 10SM FEW025 FEW035 25/22 A2999 RMK AO2 SLP153 T02500217 10272 20250 58009
PHNL 251053Z 34004KT 10SM FEW025 FEW034 SCT070 26/22 A3000 RMK AO2 SLP158 T02610217
PHNL 250953Z 02004KT 10SM FEW023 FEW040 26/22 A3001 RMK AO2 SLP161 T02560217 403170244
PHNL 250853Z 00000KT 10SM FEW025 26/22 A3001 RMK AO2 SLP162 T02610217 51010
PHNL 250753Z 02006KT 10SM FEW023 FEW036 26/22 A3001 RMK AO2 SLP162 T02610217
PHNL 250653Z 08004KT 10SM FEW026 SCT045 27/22 A3000 RMK AO2 SLP158 T02670217
PHNL 250553Z 08004KT 10SM BKN047 27/22 A2998 RMK AO2 SLP152 T02720217 10317 20272 53020
PHNL 250453Z 05005KT 10SM FEW023 BKN045 BKN070 28/22 A2995 RMK AO2 SLP143 T02780217
PHNL 250427Z 06010KT 10SM BKN036 BKN045 28/22 A2994 RMK AO2 T02830217
PHNL 250413Z 09008KT 10SM BKN028 BKN036 BKN045 28/22 A2994 RMK AO2 T02830222
PHNL 250353Z 12010KT 10SM SCT024 BKN050 BKN075 28/22 A2993 RMK AO2 SLP135 VCSH NE-E T02830217
PHNL 250253Z 13012KT 10SM SCT024 BKN045 BKN070 28/22 A2992 RMK AO2 SLP131 VCSH NE-E T02830222 55001
PHNL 250153Z 14013KT 10SM FEW026 BKN035 BKN055 29/22 A2991 RMK AO2 SLP128 T02890217
PHNL 250053Z 14018KT 10SM FEW025 SCT045 BKN055 29/22 A2991 RMK AO2 PK WND 13028/0038 SLP129 T02940222
PHNL 242353Z 09007KT 10SM FEW025 SCT044 BKN055 31/21 A2993 RMK AO2 SLP133 T03060206 10311 20267 56023
PHNL 242253Z 08009KT 10SM FEW024 SCT040 BKN048 31/21 A2994 RMK AO2 SLP139 T03110206
PHNL 242153Z 14012KT 10SM FEW024 SCT037 BKN045 29/23 A2997 RMK AO2 SLP146 T02940228
PHNL 242053Z 14009KT 10SM FEW024 SCT047 BKN200 29/22 A2999 RMK AO2 SLP156 T02940222 50002
PHNL 241953Z 14008KT 10SM FEW024 SCT045 SCT120 29/22 A3000 RMK AO2 SLP160 T02890217
PHNL 241853Z 12008KT 10SM FEW024 FEW045 FEW080 28/22 A3000 RMK AO2 SLP159 T02780222
PHNL 241753Z 01003KT 10SM FEW024 FEW080 27/22 A2999 RMK AO2 SLP154 T02670217 10267 20244 53015
PHNL 241653Z 01004KT 10SM FEW024 SCT080 24/22 A2997 RMK AO2 SLP148 T02440222
PHNL 241553Z 01004KT 10SM FEW024 FEW040 SCT080 26/22 A2995 RMK AO2 SLP142 T02560222
PHNL 241453Z 00000KT 10SM FEW025 FEW040 BKN075 26/22 A2994 RMK AO2 SLP139 T02560222 55000
PHNL 241353Z 35003KT 10SM FEW025 BKN070 25/23 A2993 RMK AO2 SLP133 T02500228
PHNL 241253Z 13003KT 10SM FEW025 FEW040 BKN065 25/23 A2993 RMK AO2 SLP135 T02500233
PHNL 241153Z 09008KT 10SM FEW023 SCT035 BKN047 25/22 A2994 RMK AO2 RAE1054 SLP139 VCSH E-SE P0000 60000 70001 T02500222 10272 20244 56012
PHNL 241053Z 03006KT 10SM -RA FEW025 SCT032 BKN045 26/23 A2996 RMK AO2 RAB45 SLP144 P0000 T02560228
PHNL 240953Z 02004KT 10SM BKN033 BKN050 27/22 A2996 RMK AO2 SLP145 T02670217 403170228
PHNL 240853Z 00000KT 10SM BKN042 BKN050 27/22 A2998 RMK AO2 SLP151 T02670217 51007
PHNL 240753Z 36005KT 10SM FEW023 FEW036 27/22 A2998 RMK AO2 SLP150 T02670217
PHNL 240653Z 07003KT 10SM FEW024 FEW038 27/22 A2997 RMK AO2 SLP149 T02670217
PHNL 240553Z 09005KT 10SM FEW026 FEW050 27/22 A2996 RMK AO2 SLP144 T02720217 10311 20272 53019
PHNL 240453Z 04004KT 10SM FEW023 SCT037 BKN060 28/21 A2993 RMK AO2 SLP135 T02780211
PHNL 240353Z 06005KT 10SM FEW033 SCT045 BKN065 28/21 A2991 RMK AO2 SLP128 T02830211
PHNL 240253Z 10SM FEW026 SCT044 BKN060 28/21 A2990 RMK AO2 SLP125 VCSH N-NE T02830211 53001
PHNL 240153Z 15010KT 10SM BKN036 BKN044 BKN055 29/22 A2990 RMK AO2 SLP124 T02940222
PHNL 240053Z 15013KT 10SM SCT029 SCT046 BKN060 29/22 A2989 RMK AO2 SLP122 T02940217
PHNL 232353Z 14015KT 10SM FEW025 BKN042 BKN075 31/22 A2990 RMK AO2 SLP124 T03060222 10317 20250 56015
PHNL 232253Z 12010G15KT 10SM FEW024 SCT055 BKN070 29/22 A2991 RMK AO2 SLP128 T02940217